createdAt,value
2023-03-22T00:03:46.923Z,-27.7
2023-03-22T00:05:48.469Z,-27.8
2023-03-22T00:07:50.160Z,-27.7
2023-03-22T00:09:52.002Z,-27.8
2023-03-22T00:13:55.439Z,-27.7
2023-03-22T00:15:57.379Z,-27.8
2023-03-22T00:17:58.403Z,-27.8
2023-03-22T00:19:59.899Z,-27.6
2023-03-22T00:22:01.268Z,-27.8
2023-03-22T00:24:02.472Z,-27.3
2023-03-22T00:26:04.400Z,-27.4
2023-03-22T00:28:05.596Z,-27.5
2023-03-22T00:30:07.549Z,-27.6
2023-03-22T00:32:08.886Z,-27.7
2023-03-22T00:34:10.800Z,-27.8
2023-03-22T00:36:12.436Z,-27.6
2023-03-22T00:38:14.462Z,-27.8
2023-03-22T00:40:17.878Z,-28.2
2023-03-22T00:42:16.786Z,-27.9
2023-03-22T00:46:20.410Z,-27.8
2023-03-22T00:48:21.411Z,-27.7
2023-03-22T00:52:24.853Z,-27.6
2023-03-22T00:56:28.123Z,-27.8
2023-03-22T00:58:30.001Z,-27.6
2023-03-22T01:00:31.783Z,-27.7
2023-03-22T01:02:33.077Z,-27.8
2023-03-22T01:04:34.074Z,-27.6
2023-03-22T01:06:35.296Z,-27.4
2023-03-22T01:08:36.873Z,-27.9
2023-03-22T01:10:38.818Z,-28
2023-03-22T01:12:39.849Z,-27.8
2023-03-22T01:14:41.827Z,-27.7
2023-03-22T01:16:43.692Z,-27.7
2023-03-22T01:18:45.159Z,-27.5
2023-03-22T01:20:46.593Z,-27.6
2023-03-22T01:22:48.199Z,-27.7
2023-03-22T01:24:49.961Z,-27.8
2023-03-22T01:28:52.626Z,-27.7
2023-03-22T01:30:53.751Z,-27.7
2023-03-22T01:32:54.819Z,-27.8
2023-03-22T01:34:56.328Z,-27.7
2023-03-22T01:41:00.443Z,-27.8
2023-03-22T01:43:02.074Z,-27.8
2023-03-22T01:45:02.792Z,-27.5
2023-03-22T01:47:04.116Z,-27.8
2023-03-22T01:49:13.492Z,-28
2023-03-22T01:51:07.291Z,-27.7
2023-03-22T01:55:09.957Z,-28
2023-03-22T01:57:11.292Z,-27.5
2023-03-22T01:59:12.681Z,-27.8
2023-03-22T02:01:14.517Z,-27.6
2023-03-22T02:03:16.296Z,-27.7
2023-03-22T02:05:17.864Z,-27.8
2023-03-22T02:07:19.313Z,-27.7
2023-03-22T02:09:21.012Z,-27.7
2023-03-22T02:11:22.621Z,-27.7
2023-03-22T02:13:24.226Z,-27.7
2023-03-22T02:17:27.320Z,-27.7
2023-03-22T02:19:29.198Z,-27.7
2023-03-22T02:21:30.336Z,-27.7
2023-03-22T02:23:31.549Z,-27.7
2023-03-22T02:27:33.768Z,-27.6
2023-03-22T02:29:35.278Z,-27.8
2023-03-22T02:31:36.734Z,-27.9
2023-03-22T02:33:39.264Z,-27.7
2023-03-22T02:39:41.811Z,-27.8
2023-03-22T02:41:43.558Z,-27.8
2023-03-22T02:43:45.517Z,-27.8
2023-03-22T02:45:47.193Z,-27.6
2023-03-22T02:47:49.003Z,-28
2023-03-22T02:49:50.729Z,-27.7
2023-03-22T02:51:52.461Z,-27.9
2023-03-22T02:53:54.229Z,-28
2023-03-22T02:55:55.908Z,-27.9
2023-03-22T02:59:58.927Z,-27.6
2023-03-22T03:02:00.632Z,-27.8
2023-03-22T03:04:02.192Z,-28
2023-03-22T03:06:47.092Z,-27.6
2023-03-22T03:08:48.783Z,-27.8
2023-03-22T03:10:50.719Z,-27.5
2023-03-22T03:16:56.023Z,-27.7
2023-03-22T03:18:57.611Z,-27.8
2023-03-22T03:20:59.238Z,-27.9
2023-03-22T03:23:00.864Z,-27.7
2023-03-22T03:25:02.708Z,-27.6
2023-03-22T03:27:03.989Z,-27.6
2023-03-22T03:31:06.903Z,-28.2
2023-03-22T03:33:08.290Z,-27.8
2023-03-22T03:35:10.259Z,-27.9
2023-03-22T03:37:11.809Z,-27.7
2023-03-22T03:43:16.662Z,-27.6
2023-03-22T03:45:18.091Z,-27.6
2023-03-22T03:47:19.452Z,-27.7
2023-03-22T03:49:21.407Z,-27.8
2023-03-22T03:51:23.064Z,-27.4
2023-03-22T03:53:24.246Z,-28
2023-03-22T03:57:26.607Z,-27.8
2023-03-22T03:59:28.276Z,-27.9
2023-03-22T04:01:30.181Z,-27.9
2023-03-22T04:03:31.295Z,-27.7
2023-03-22T04:05:32.338Z,-27.6
2023-03-22T04:07:34.223Z,-27.8
2023-03-22T04:09:35.772Z,-27.6
2023-03-22T04:11:45.685Z,-27.6
2023-03-22T04:13:39.463Z,-27.7
2023-03-22T04:15:41.310Z,-27.8
2023-03-22T04:17:42.578Z,-27.5
2023-03-22T04:19:43.982Z,-27.7
2023-03-22T04:25:49.666Z,-27.7
2023-03-22T04:27:50.824Z,-27.8
2023-03-22T04:29:52.522Z,-27.8
2023-03-22T04:31:54.234Z,-27.4
2023-03-22T04:33:55.956Z,-27.7
2023-03-22T04:35:57.245Z,-27.7
2023-03-22T04:37:58.258Z,-27.9
2023-03-22T04:39:59.758Z,-27.9
2023-03-22T04:42:01.160Z,-27.8
2023-03-22T04:44:02.676Z,-27.7
2023-03-22T04:46:04.555Z,-27.8
2023-03-22T04:48:06.291Z,-27.7
2023-03-22T04:50:08.210Z,-27.6
2023-03-22T04:52:09.488Z,-28
2023-03-22T04:54:10.474Z,-27.9
2023-03-22T04:58:13.203Z,-27.9
2023-03-22T05:02:15.469Z,-27.7
2023-03-22T05:04:16.917Z,-27.5
2023-03-22T05:06:18.500Z,-27.8
2023-03-22T05:08:19.731Z,-27.9
2023-03-22T05:12:22.685Z,-27.8
2023-03-22T05:14:23.861Z,-27.6
2023-03-22T05:16:25.324Z,-27.7
2023-03-22T05:18:26.938Z,-27.9
2023-03-22T05:22:30.048Z,-27.6
2023-03-22T05:24:31.637Z,-27.8
2023-03-22T05:28:34.478Z,-27.7
2023-03-22T05:30:36.172Z,-27.6
2023-03-22T05:32:37.787Z,-27.7
2023-03-22T05:34:39.739Z,-27.6
2023-03-22T05:40:44.050Z,-27.7
2023-03-22T05:42:46.001Z,-27.9
2023-03-22T05:44:47.691Z,-27.8
2023-03-22T05:46:49.608Z,-27.9
2023-03-22T05:48:50.808Z,-28
2023-03-22T05:50:52.367Z,-27.8
2023-03-22T05:54:56.228Z,-27.9
2023-03-22T05:56:57.884Z,-27.6
2023-03-22T05:58:59.709Z,-27.7
2023-03-22T06:01:01.241Z,-27.9
2023-03-22T06:05:04.298Z,-27.7
2023-03-22T06:07:06.227Z,-27.5
2023-03-22T06:11:08.882Z,-27.5
2023-03-22T06:13:10.178Z,-27.7
2023-03-22T06:15:11.436Z,-27.5
2023-03-22T06:17:12.391Z,-27.6
2023-03-22T06:23:17.146Z,-27.8
2023-03-22T06:25:18.339Z,-25.4
2023-03-22T06:27:19.791Z,-26.2
2023-03-22T06:29:21.599Z,-27.4
2023-03-22T06:31:22.917Z,-27.3
2023-03-22T06:33:24.161Z,-27.7
2023-03-22T06:35:26.060Z,-27.6
2023-03-22T06:37:27.284Z,-27.7
2023-03-22T06:39:28.675Z,-27.9
2023-03-22T06:41:29.850Z,-27.4
2023-03-22T06:43:30.927Z,-26.2
2023-03-22T06:45:32.289Z,-26.9
2023-03-22T06:47:33.287Z,-6.1
2023-03-22T06:49:34.813Z,4.4
2023-03-22T06:51:36.324Z,-15.5
2023-03-22T06:53:37.396Z,-15.9
2023-03-22T06:55:39.269Z,-19.2
2023-03-22T06:57:40.742Z,-21.1
2023-03-22T06:59:41.848Z,-21.2
2023-03-22T07:01:43.537Z,-15.2
2023-03-22T07:03:44.611Z,-19
2023-03-22T07:05:45.670Z,-13.3
2023-03-22T07:07:47.063Z,-15.3
2023-03-22T07:09:48.278Z,-19.2
2023-03-22T07:11:49.879Z,-22.2
2023-03-22T07:13:51.202Z,-22.5
2023-03-22T07:15:52.503Z,-21.2
2023-03-22T07:17:53.685Z,-9.8
2023-03-22T07:21:55.686Z,-24.4
2023-03-22T07:23:57.041Z,27.1
2023-03-22T07:25:58.137Z,36.7
2023-03-22T07:27:59.440Z,39.09
2023-03-22T07:30:00.750Z,46.1
2023-03-22T07:32:01.951Z,51
2023-03-22T07:38:06.258Z,59.4
2023-03-22T07:40:07.117Z,33.4
2023-03-22T07:42:08.393Z,35.9
2023-03-22T07:44:17.520Z,30.2
2023-03-22T07:46:10.776Z,33.3
2023-03-22T07:48:12.159Z,65.6
2023-03-22T07:52:14.272Z,57.1
2023-03-22T07:54:27.228Z,56.5
2023-03-22T07:58:18.998Z,81.19
2023-03-22T08:02:22.057Z,55.1
2023-03-22T08:04:23.463Z,54.9
2023-03-22T08:08:25.343Z,53.6
2023-03-22T08:10:26.396Z,53.2
2023-03-22T08:12:27.273Z,52.7
2023-03-22T08:14:36.156Z,52.2
2023-03-22T08:18:31.235Z,50.9
2023-03-22T08:20:32.720Z,51.1
2023-03-22T08:22:34.386Z,49.8
2023-03-22T08:24:35.683Z,49.7
2023-03-22T08:28:38.747Z,73.5
2023-03-22T08:30:41.167Z,73.1
2023-03-22T08:34:43.417Z,46.8
2023-03-22T08:36:44.826Z,71
2023-03-22T08:38:45.939Z,69.9
2023-03-22T08:40:47.043Z,44.7
2023-03-22T08:42:48.199Z,67.9
2023-03-22T08:44:49.964Z,67
2023-03-22T08:46:50.937Z,43
2023-03-22T08:50:54.952Z,40.9
2023-03-22T08:52:57.703Z,39.7
2023-03-22T08:54:58.861Z,60.7
2023-03-22T08:56:59.777Z,38.09
2023-03-22T09:01:02.791Z,57.2
2023-03-22T09:03:03.943Z,56.5
2023-03-22T09:05:06.166Z,34
2023-03-22T09:07:07.116Z,53.7
2023-03-22T09:09:08.860Z,52
2023-03-22T09:11:10.504Z,50.6
2023-03-22T09:13:11.922Z,30
2023-03-22T09:15:13.857Z,29.1
2023-03-22T09:17:15.284Z,28.1
2023-03-22T09:19:16.942Z,26.9
2023-03-22T09:21:18.159Z,25.6
2023-03-22T09:23:19.496Z,40.09
2023-03-22T09:27:29.848Z,21.9
2023-03-22T09:29:22.903Z,20.7
2023-03-22T09:31:24.202Z,37.3
2023-03-22T09:33:25.729Z,17.7
2023-03-22T09:35:45.444Z,34.3
2023-03-22T09:37:28.420Z,17.4
2023-03-22T09:39:29.846Z,30.7
2023-03-22T09:41:30.813Z,13.7
2023-03-22T09:43:33.147Z,25.6
2023-03-22T09:45:33.606Z,11.9
2023-03-22T09:47:44.142Z,23.2
2023-03-22T09:49:50.680Z,10.5
2023-03-22T09:50:40.322Z,23.2
2023-03-22T09:56:24.228Z,17
2023-03-22T09:58:33.364Z,8.3
2023-03-22T10:00:35.415Z,8
2023-03-22T10:02:27.588Z,17.2
2023-03-22T10:04:28.831Z,14.6
2023-03-22T10:06:29.691Z,5.5
2023-03-22T10:10:32.173Z,4.5
2023-03-22T10:12:33.016Z,-0.6
2023-03-22T10:14:43.611Z,8.1
2023-03-22T10:16:36.242Z,10.4
2023-03-22T10:22:41.276Z,8.39
2023-03-22T10:24:43.052Z,-26.2
2023-03-22T10:26:44.035Z,-26
2023-03-22T10:28:45.456Z,-26
2023-03-22T10:30:47.277Z,-25.8
2023-03-22T10:32:57.402Z,-53.1
2023-03-22T10:36:51.310Z,-25.9
2023-03-22T10:38:52.388Z,-36.8
2023-03-22T10:40:53.754Z,-50.6
2023-03-22T10:42:54.981Z,-30.5
2023-03-22T10:44:56.716Z,-26.1
2023-03-22T10:46:58.567Z,-26.7
2023-03-22T10:48:59.670Z,-26
2023-03-22T10:51:01.341Z,-52.7
2023-03-22T10:53:02.685Z,-53.2
2023-03-22T10:55:04.636Z,-53
2023-03-22T10:57:04.543Z,-51.8
2023-03-22T10:59:05.470Z,-53
2023-03-22T11:01:07.330Z,-53.2
2023-03-22T11:03:09.015Z,-53
2023-03-22T11:05:10.101Z,-26
2023-03-22T11:09:13.119Z,-26.1
2023-03-22T11:11:14.470Z,-26
2023-03-22T11:13:15.990Z,-26.2
2023-03-22T11:15:17.437Z,-53.2
2023-03-22T11:21:20.977Z,-26.2
2023-03-22T11:23:22.494Z,-25.8
2023-03-22T11:25:23.473Z,-26
2023-03-22T11:27:25.145Z,-25.8
2023-03-22T11:29:26.948Z,-26
2023-03-22T11:31:28.789Z,-53.1
2023-03-22T11:33:30.148Z,-26.2
2023-03-22T11:35:31.148Z,-26.1
2023-03-22T11:37:32.314Z,-53.5
2023-03-22T11:39:34.136Z,-26.5
2023-03-22T11:41:35.561Z,-26.2
2023-03-22T11:43:36.875Z,-26.2
2023-03-22T11:45:38.655Z,-26
2023-03-22T11:47:39.613Z,-26.1
2023-03-22T11:49:40.957Z,-26.2
2023-03-22T11:51:42.544Z,-53.3
2023-03-22T11:53:44.246Z,-26.3
2023-03-22T11:55:45.241Z,-26.1
2023-03-22T11:57:46.655Z,-26.1
2023-03-22T11:59:47.929Z,-26.3
2023-03-22T12:01:49.049Z,-26.3
2023-03-22T12:03:50.250Z,-26.2
2023-03-22T12:05:51.915Z,-26.1
2023-03-22T12:07:53.360Z,-26.1
2023-03-22T12:09:54.717Z,-26.1
2023-03-22T12:11:55.644Z,-53.4
2023-03-22T12:13:57.433Z,-26.1
2023-03-22T12:20:02.766Z,-53.2
2023-03-22T12:22:03.792Z,-26.1
2023-03-22T12:24:05.675Z,-25.8
2023-03-22T12:26:07.010Z,-26.1
2023-03-22T12:28:08.570Z,-26.1
2023-03-22T12:30:09.528Z,-53.1
2023-03-22T12:34:11.995Z,-53.1
2023-03-22T12:36:13.816Z,-26.2
2023-03-22T12:38:15.009Z,-26.1
2023-03-22T12:40:16.719Z,-26.2
2023-03-22T12:44:19.064Z,-53.3
2023-03-22T12:46:20.455Z,-30.1
2023-03-22T12:48:22.171Z,-53.8
2023-03-22T12:50:23.176Z,-27.1
2023-03-22T12:52:26.345Z,-26.1
2023-03-22T12:54:26.330Z,-26.1
2023-03-22T12:56:27.490Z,-25.9
2023-03-22T12:58:28.991Z,-26.1
2023-03-22T13:00:30.852Z,-53.3
2023-03-22T13:02:32.291Z,-32.09
2023-03-22T13:04:33.525Z,-25.9
2023-03-22T13:06:35.228Z,-26
2023-03-22T13:10:37.246Z,-29.4
2023-03-22T13:12:38.214Z,-53.3
2023-03-22T13:14:39.458Z,-53
2023-03-22T13:16:40.335Z,-25.9
2023-03-22T13:18:42.016Z,-53.4
2023-03-22T13:20:43.084Z,-53.2
2023-03-22T13:22:44.861Z,-25.8
2023-03-22T13:24:45.713Z,-26.3
2023-03-22T13:26:46.707Z,-27
2023-03-22T13:28:48.208Z,-53.3
2023-03-22T13:30:49.185Z,-26.2
2023-03-22T13:32:52.619Z,-26.1
2023-03-22T13:34:51.613Z,-26.1
2023-03-22T13:36:52.711Z,-26.2
2023-03-22T13:38:54.107Z,-25.9
2023-03-22T13:40:55.153Z,-26.4
2023-03-22T13:42:56.818Z,-29.7
2023-03-22T13:44:58.701Z,-26.1
2023-03-22T13:46:59.275Z,-26
2023-03-22T13:49:01.151Z,-26
2023-03-22T13:51:02.231Z,-34.2
2023-03-22T13:53:03.593Z,-27.1
2023-03-22T13:55:04.645Z,-26.2
2023-03-22T14:01:07.970Z,-26.8
2023-03-22T14:03:08.973Z,-26
2023-03-22T14:05:10.545Z,-26.1
2023-03-22T14:07:11.712Z,-26
2023-03-22T14:09:13.248Z,-26.2
2023-03-22T14:11:14.820Z,-26.1
2023-03-22T14:15:17.759Z,-29.6
2023-03-22T14:17:18.897Z,-26.4
2023-03-22T14:19:19.887Z,-25.9
2023-03-22T14:21:21.322Z,-53.4
2023-03-22T14:57:46.207Z,41.7
2023-03-22T15:07:52.181Z,33.5
2023-03-22T15:13:55.689Z,13.2
2023-03-22T15:24:03.304Z,20.29
2023-03-22T15:40:14.619Z,1.2
2023-03-22T15:50:20.522Z,9.5
2023-03-22T15:56:24.772Z,-26.1
2023-03-22T16:00:26.259Z,-26
2023-03-22T16:06:31.239Z,-25.9
2023-03-22T16:35:34.397Z,-25.8
2023-03-22T16:43:40.079Z,-26.1
2023-03-22T17:16:01.475Z,-26.1
2023-03-22T17:26:09.026Z,-26
2023-03-22T17:32:16.727Z,-26
2023-03-22T17:42:21.424Z,-25.9
2023-03-22T17:58:41.115Z,-26.3
2023-03-22T18:08:37.902Z,-26.1
2023-03-22T18:14:43.025Z,-26.2
2023-03-22T18:18:46.219Z,-26
2023-03-22T18:24:51.431Z,-26.3
2023-03-22T18:51:11.520Z,-26
2023-03-22T18:57:13.348Z,-26.4
2023-03-22T19:07:30.292Z,-26.1
2023-03-22T19:39:42.681Z,-26.1
2023-03-22T19:49:48.263Z,-26.3
2023-03-22T19:55:52.358Z,-26.3
2023-03-22T20:05:58.954Z,-26.5
2023-03-22T20:22:10.306Z,-26.1
2023-03-22T20:32:16.280Z,-26
2023-03-22T20:38:20.782Z,-26.2
2023-03-22T20:42:24.363Z,-26.1
2023-03-22T20:48:28.773Z,-26.1
2023-03-22T20:52:31.158Z,-26.2
2023-03-22T21:02:39.131Z,-26.2
2023-03-22T21:20:51.225Z,-26.1
2023-03-22T21:30:58.134Z,-26.4
2023-03-22T21:37:02.543Z,-26.2
2023-03-22T21:47:08.933Z,-26.1
2023-03-22T22:03:20.053Z,-26.1
2023-03-22T22:13:27.387Z,-26.2
2023-03-22T22:19:32.059Z,-26.1
2023-03-22T22:29:39.417Z,-26.2
2023-03-22T22:45:52.202Z,-26.3
2023-03-22T22:51:56.205Z,-25.8
2023-03-22T23:02:02.786Z,-26.2
2023-03-22T23:18:14.437Z,-26.1
2023-03-22T23:23:01.437Z,-26.1
2023-03-22T23:29:05.670Z,-25.8
2023-03-22T23:39:12.977Z,-26.1
2023-03-22T23:55:25.027Z,-26.1
